sensor_id;sensor_type;location;lat;lon;timestamp;P1;durP1;ratioP1;P2;durP2;ratioP2
32946;SDS011;54465;51.230;22.504;2024-01-15T00:01:52;12.25;;;7.30;;
32946;SDS011;54465;51.230;22.504;2024-01-15T00:06:52;14.70;;;8.45;;
32946;SDS011;54465;51.230;22.504;2024-01-15T00:11:53;13.40;;;8.50;;
32946;SDS011;54465;51.230;22.504;2024-01-15T00:16:53;13.32;;;8.20;;
32946;SDS011;54465;51.230;22.504;2024-01-15T00:21:55;12.88;;;7.93;;
32946;SDS011;54465;51.230;22.504;2024-01-15T00:26:55;14.45;;;8.20;;
32946;SDS011;54465;51.230;22.504;2024-01-15T00:31:56;12.30;;;7.28;;
32946;SDS011;54465;51.230;22.504;2024-01-15T00:36:57;13.90;;;7.93;;
32946;SDS011;54465;51.230;22.504;2024-01-15T00:41:57;12.45;;;7.32;;
32946;SDS011;54465;51.230;22.504;2024-01-15T00:46:58;12.93;;;7.63;;
32946;SDS011;54465;51.230;22.504;2024-01-15T00:51:58;14.43;;;7.72;;
32946;SDS011;54465;51.230;22.504;2024-01-15T00:56:59;12.65;;;7.78;;
32946;SDS011;54465;51.230;22.504;2024-01-15T01:01:59;12.68;;;7.78;;
32946;SDS011;54465;51.230;22.504;2024-01-15T01:07:00;14.25;;;7.63;;
32946;SDS011;54465;51.230;22.504;2024-01-15T01:12:00;12.73;;;7.63;;
32946;SDS011;54465;51.230;22.504;2024-01-15T01:17:01;11.68;;;7.63;;
32946;SDS011;54465;51.230;22.504;2024-01-15T01:22:01;13.63;;;7.97;;
32946;SDS011;54465;51.230;22.504;2024-01-15T01:27:02;15.30;;;8.07;;
32946;SDS011;54465;51.230;22.504;2024-01-15T01:32:03;11.23;;;7.28;;
32946;SDS011;54465;51.230;22.504;2024-01-15T01:37:04;13.07;;;8.05;;
32946;SDS011;54465;51.230;22.504;2024-01-15T01:42:04;17.35;;;8.57;;
32946;SDS011;54465;51.230;22.504;2024-01-15T01:47:05;13.98;;;8.65;;
32946;SDS011;54465;51.230;22.504;2024-01-15T01:52:06;14.18;;;7.47;;
32946;SDS011;54465;51.230;22.504;2024-01-15T01:57:10;14.98;;;7.65;;
32946;SDS011;54465;51.230;22.504;2024-01-15T02:02:11;12.77;;;7.93;;
32946;SDS011;54465;51.230;22.504;2024-01-15T02:07:11;12.27;;;7.22;;
32946;SDS011;54465;51.230;22.504;2024-01-15T02:12:12;13.10;;;7.68;;
32946;SDS011;54465;51.230;22.504;2024-01-15T02:17:12;14.70;;;7.80;;
32946;SDS011;54465;51.230;22.504;2024-01-15T02:22:13;14.85;;;7.30;;
32946;SDS011;54465;51.230;22.504;2024-01-15T02:27:13;12.65;;;7.78;;
32946;SDS011;54465;51.230;22.504;2024-01-15T02:32:14;10.90;;;6.43;;
32946;SDS011;54465;51.230;22.504;2024-01-15T02:37:15;12.80;;;7.65;;
32946;SDS011;54465;51.230;22.504;2024-01-15T02:42:15;12.75;;;6.45;;
32946;SDS011;54465;51.230;22.504;2024-01-15T02:47:16;10.38;;;6.00;;
32946;SDS011;54465;51.230;22.504;2024-01-15T02:52:18;13.60;;;6.57;;
32946;SDS011;54465;51.230;22.504;2024-01-15T02:57:18;9.57;;;6.57;;
32946;SDS011;54465;51.230;22.504;2024-01-15T03:02:19;12.85;;;6.38;;
32946;SDS011;54465;51.230;22.504;2024-01-15T03:07:20;8.90;;;5.70;;
32946;SDS011;54465;51.230;22.504;2024-01-15T03:12:20;11.40;;;5.93;;
32946;SDS011;54465;51.230;22.504;2024-01-15T03:17:21;10.43;;;5.97;;
32946;SDS011;54465;51.230;22.504;2024-01-15T03:22:21;13.65;;;7.18;;
32946;SDS011;54465;51.230;22.504;2024-01-15T03:27:22;8.88;;;5.97;;
32946;SDS011;54465;51.230;22.504;2024-01-15T03:32:22;9.63;;;5.55;;
32946;SDS011;54465;51.230;22.504;2024-01-15T03:37:23;9.80;;;4.72;;
32946;SDS011;54465;51.230;22.504;2024-01-15T03:42:23;9.07;;;5.30;;
32946;SDS011;54465;51.230;22.504;2024-01-15T03:47:24;9.50;;;5.18;;
32946;SDS011;54465;51.230;22.504;2024-01-15T03:52:26;10.27;;;5.45;;
32946;SDS011;54465;51.230;22.504;2024-01-15T03:57:26;7.93;;;4.82;;
32946;SDS011;54465;51.230;22.504;2024-01-15T04:02:27;7.50;;;4.68;;
32946;SDS011;54465;51.230;22.504;2024-01-15T04:07:28;8.02;;;4.35;;
32946;SDS011;54465;51.230;22.504;2024-01-15T04:12:28;10.07;;;4.95;;
32946;SDS011;54465;51.230;22.504;2024-01-15T04:17:29;7.93;;;4.80;;
32946;SDS011;54465;51.230;22.504;2024-01-15T04:22:29;7.35;;;4.18;;
32946;SDS011;54465;51.230;22.504;2024-01-15T04:27:30;7.75;;;4.18;;
32946;SDS011;54465;51.230;22.504;2024-01-15T04:32:30;5.40;;;4.07;;
32946;SDS011;54465;51.230;22.504;2024-01-15T04:37:31;10.05;;;3.72;;
32946;SDS011;54465;51.230;22.504;2024-01-15T04:42:31;6.65;;;3.55;;
32946;SDS011;54465;51.230;22.504;2024-01-15T04:47:32;7.82;;;3.63;;
32946;SDS011;54465;51.230;22.504;2024-01-15T04:52:33;5.05;;;3.03;;
32946;SDS011;54465;51.230;22.504;2024-01-15T04:57:34;7.65;;;4.05;;
32946;SDS011;54465;51.230;22.504;2024-01-15T05:02:34;6.00;;;3.70;;
32946;SDS011;54465;51.230;22.504;2024-01-15T05:07:35;6.43;;;3.75;;
32946;SDS011;54465;51.230;22.504;2024-01-15T05:12:35;6.97;;;4.05;;
32946;SDS011;54465;51.230;22.504;2024-01-15T05:17:36;7.57;;;4.00;;
32946;SDS011;54465;51.230;22.504;2024-01-15T05:22:36;7.28;;;4.18;;
32946;SDS011;54465;51.230;22.504;2024-01-15T05:27:37;6.53;;;3.70;;
32946;SDS011;54465;51.230;22.504;2024-01-15T05:32:38;6.32;;;3.40;;
32946;SDS011;54465;51.230;22.504;2024-01-15T05:37:39;7.85;;;3.53;;
32946;SDS011;54465;51.230;22.504;2024-01-15T05:42:44;5.03;;;3.20;;
32946;SDS011;54465;51.230;22.504;2024-01-15T05:47:44;7.38;;;3.63;;
32946;SDS011;54465;51.230;22.504;2024-01-15T05:52:45;5.10;;;3.08;;
32946;SDS011;54465;51.230;22.504;2024-01-15T05:57:46;6.30;;;3.85;;
32946;SDS011;54465;51.230;22.504;2024-01-15T06:02:46;5.60;;;3.20;;
32946;SDS011;54465;51.230;22.504;2024-01-15T06:07:47;8.73;;;3.58;;
32946;SDS011;54465;51.230;22.504;2024-01-15T06:12:47;6.57;;;3.55;;
32946;SDS011;54465;51.230;22.504;2024-01-15T06:17:48;7.82;;;4.13;;
32946;SDS011;54465;51.230;22.504;2024-01-15T06:22:49;5.75;;;3.58;;
32946;SDS011;54465;51.230;22.504;2024-01-15T06:27:49;5.00;;;3.60;;
32946;SDS011;54465;51.230;22.504;2024-01-15T06:32:50;5.07;;;3.13;;
32946;SDS011;54465;51.230;22.504;2024-01-15T06:37:50;6.13;;;2.85;;
32946;SDS011;54465;51.230;22.504;2024-01-15T06:42:51;8.23;;;2.88;;
32946;SDS011;54465;51.230;22.504;2024-01-15T06:47:51;6.55;;;3.38;;
32946;SDS011;54465;51.230;22.504;2024-01-15T06:52:53;7.05;;;3.33;;
32946;SDS011;54465;51.230;22.504;2024-01-15T06:57:53;5.65;;;2.92;;
32946;SDS011;54465;51.230;22.504;2024-01-15T07:02:54;5.93;;;2.50;;
32946;SDS011;54465;51.230;22.504;2024-01-15T07:07:54;3.47;;;2.15;;
32946;SDS011;54465;51.230;22.504;2024-01-15T07:12:55;3.00;;;1.88;;
32946;SDS011;54465;51.230;22.504;2024-01-15T07:17:56;4.38;;;2.42;;
32946;SDS011;54465;51.230;22.504;2024-01-15T07:22:56;7.85;;;3.67;;
32946;SDS011;54465;51.230;22.504;2024-01-15T07:27:57;4.13;;;2.58;;
32946;SDS011;54465;51.230;22.504;2024-01-15T07:32:58;6.50;;;2.63;;
32946;SDS011;54465;51.230;22.504;2024-01-15T07:37:58;6.35;;;2.70;;
32946;SDS011;54465;51.230;22.504;2024-01-15T07:42:59;4.80;;;2.80;;
32946;SDS011;54465;51.230;22.504;2024-01-15T07:47:59;6.03;;;2.80;;
32946;SDS011;54465;51.230;22.504;2024-01-15T07:53:01;5.15;;;2.30;;
32946;SDS011;54465;51.230;22.504;2024-01-15T07:58:01;5.93;;;3.38;;
32946;SDS011;54465;51.230;22.504;2024-01-15T08:03:03;8.25;;;4.03;;
32946;SDS011;54465;51.230;22.504;2024-01-15T08:08:04;7.15;;;3.50;;
32946;SDS011;54465;51.230;22.504;2024-01-15T08:13:04;8.60;;;3.60;;
32946;SDS011;54465;51.230;22.504;2024-01-15T08:18:08;4.53;;;2.65;;
32946;SDS011;54465;51.230;22.504;2024-01-15T08:23:09;6.18;;;3.17;;
32946;SDS011;54465;51.230;22.504;2024-01-15T08:28:09;7.43;;;3.75;;
32946;SDS011;54465;51.230;22.504;2024-01-15T08:33:10;8.55;;;4.05;;
32946;SDS011;54465;51.230;22.504;2024-01-15T08:38:11;7.47;;;3.70;;
32946;SDS011;54465;51.230;22.504;2024-01-15T08:43:11;7.40;;;3.67;;
32946;SDS011;54465;51.230;22.504;2024-01-15T08:48:12;8.00;;;4.25;;
32946;SDS011;54465;51.230;22.504;2024-01-15T08:53:13;8.82;;;4.07;;
32946;SDS011;54465;51.230;22.504;2024-01-15T08:58:14;9.13;;;3.70;;
32946;SDS011;54465;51.230;22.504;2024-01-15T09:03:14;7.90;;;4.85;;
32946;SDS011;54465;51.230;22.504;2024-01-15T09:08:15;9.27;;;4.57;;
32946;SDS011;54465;51.230;22.504;2024-01-15T09:13:16;7.18;;;3.72;;
32946;SDS011;54465;51.230;22.504;2024-01-15T09:18:16;6.68;;;3.33;;
32946;SDS011;54465;51.230;22.504;2024-01-15T09:23:17;9.90;;;4.70;;
32946;SDS011;54465;51.230;22.504;2024-01-15T09:28:17;8.30;;;3.58;;
32946;SDS011;54465;51.230;22.504;2024-01-15T09:33:18;5.38;;;3.75;;
32946;SDS011;54465;51.230;22.504;2024-01-15T09:38:19;6.13;;;3.97;;
32946;SDS011;54465;51.230;22.504;2024-01-15T09:43:20;10.52;;;4.50;;
32946;SDS011;54465;51.230;22.504;2024-01-15T09:48:21;7.68;;;4.10;;
32946;SDS011;54465;51.230;22.504;2024-01-15T09:53:23;5.22;;;3.45;;
32946;SDS011;54465;51.230;22.504;2024-01-15T09:58:25;4.70;;;3.30;;
32946;SDS011;54465;51.230;22.504;2024-01-15T10:03:26;6.45;;;3.38;;
32946;SDS011;54465;51.230;22.504;2024-01-15T10:08:27;5.70;;;3.63;;
32946;SDS011;54465;51.230;22.504;2024-01-15T10:13:27;6.57;;;4.05;;
32946;SDS011;54465;51.230;22.504;2024-01-15T10:18:28;6.18;;;4.28;;
32946;SDS011;54465;51.230;22.504;2024-01-15T10:23:29;7.20;;;4.10;;
32946;SDS011;54465;51.230;22.504;2024-01-15T10:28:30;7.90;;;4.68;;
32946;SDS011;54465;51.230;22.504;2024-01-15T10:33:31;7.38;;;4.35;;
32946;SDS011;54465;51.230;22.504;2024-01-15T10:38:32;7.18;;;4.18;;
32946;SDS011;54465;51.230;22.504;2024-01-15T10:43:32;7.05;;;4.30;;
32946;SDS011;54465;51.230;22.504;2024-01-15T10:48:34;7.35;;;4.03;;
32946;SDS011;54465;51.230;22.504;2024-01-15T10:53:38;7.88;;;4.20;;
32946;SDS011;54465;51.230;22.504;2024-01-15T10:58:41;6.20;;;3.38;;
32946;SDS011;54465;51.230;22.504;2024-01-15T11:03:43;6.80;;;4.20;;
32946;SDS011;54465;51.230;22.504;2024-01-15T11:08:44;8.02;;;4.55;;
32946;SDS011;54465;51.230;22.504;2024-01-15T11:13:47;7.20;;;4.05;;
32946;SDS011;54465;51.230;22.504;2024-01-15T11:23:58;8.02;;;4.45;;
32946;SDS011;54465;51.230;22.504;2024-01-15T11:29:00;7.28;;;3.95;;
32946;SDS011;54465;51.230;22.504;2024-01-15T11:34:21;7.80;;;3.83;;
32946;SDS011;54465;51.230;22.504;2024-01-15T11:40:06;7.25;;;3.45;;
32946;SDS011;54465;51.230;22.504;2024-01-15T11:45:11;8.05;;;4.28;;
32946;SDS011;54465;51.230;22.504;2024-01-15T11:50:12;4.53;;;3.15;;
32946;SDS011;54465;51.230;22.504;2024-01-15T11:55:19;7.43;;;3.95;;
32946;SDS011;54465;51.230;22.504;2024-01-15T12:00:25;6.03;;;3.58;;
32946;SDS011;54465;51.230;22.504;2024-01-15T12:05:26;7.55;;;3.55;;
32946;SDS011;54465;51.230;22.504;2024-01-15T12:10:26;8.90;;;4.63;;
32946;SDS011;54465;51.230;22.504;2024-01-15T12:15:27;8.75;;;3.90;;
32946;SDS011;54465;51.230;22.504;2024-01-15T12:20:30;7.07;;;3.45;;
32946;SDS011;54465;51.230;22.504;2024-01-15T12:25:31;6.47;;;3.92;;
32946;SDS011;54465;51.230;22.504;2024-01-15T12:30:33;8.13;;;4.25;;
32946;SDS011;54465;51.230;22.504;2024-01-15T12:35:34;8.63;;;4.70;;
32946;SDS011;54465;51.230;22.504;2024-01-15T12:40:36;7.35;;;3.53;;
32946;SDS011;54465;51.230;22.504;2024-01-15T12:45:36;8.45;;;3.80;;
32946;SDS011;54465;51.230;22.504;2024-01-15T12:50:37;8.15;;;4.40;;
32946;SDS011;54465;51.230;22.504;2024-01-15T12:55:38;7.57;;;4.20;;
32946;SDS011;54465;51.230;22.504;2024-01-15T13:00:39;5.47;;;3.28;;
32946;SDS011;54465;51.230;22.504;2024-01-15T13:05:40;8.50;;;4.07;;
32946;SDS011;54465;51.230;22.504;2024-01-15T13:10:41;8.68;;;4.15;;
32946;SDS011;54465;51.230;22.504;2024-01-15T13:15:42;8.32;;;4.07;;
32946;SDS011;54465;51.230;22.504;2024-01-15T13:20:43;8.27;;;4.70;;
32946;SDS011;54465;51.230;22.504;2024-01-15T13:25:43;8.07;;;3.78;;
32946;SDS011;54465;51.230;22.504;2024-01-15T13:30:44;8.95;;;4.43;;
32946;SDS011;54465;51.230;22.504;2024-01-15T13:35:44;7.57;;;4.25;;
32946;SDS011;54465;51.230;22.504;2024-01-15T13:40:45;9.45;;;4.80;;
32946;SDS011;54465;51.230;22.504;2024-01-15T13:45:46;7.00;;;4.38;;
32946;SDS011;54465;51.230;22.504;2024-01-15T13:50:46;8.75;;;4.55;;
32946;SDS011;54465;51.230;22.504;2024-01-15T13:55:47;11.95;;;5.18;;
32946;SDS011;54465;51.230;22.504;2024-01-15T14:00:48;9.07;;;4.93;;
32946;SDS011;54465;51.230;22.504;2024-01-15T14:05:48;16.50;;;5.88;;
32946;SDS011;54465;51.230;22.504;2024-01-15T14:10:51;10.13;;;5.50;;
32946;SDS011;54465;51.230;22.504;2024-01-15T14:15:52;12.95;;;5.18;;
32946;SDS011;54465;51.230;22.504;2024-01-15T14:20:52;13.25;;;5.28;;
32946;SDS011;54465;51.230;22.504;2024-01-15T14:25:56;11.43;;;4.80;;
32946;SDS011;54465;51.230;22.504;2024-01-15T14:30:57;8.68;;;5.10;;
32946;SDS011;54465;51.230;22.504;2024-01-15T14:36:00;10.85;;;5.20;;
32946;SDS011;54465;51.230;22.504;2024-01-15T14:41:00;11.63;;;5.68;;
32946;SDS011;54465;51.230;22.504;2024-01-15T14:46:01;10.40;;;5.78;;
32946;SDS011;54465;51.230;22.504;2024-01-15T14:51:02;10.30;;;5.05;;
32946;SDS011;54465;51.230;22.504;2024-01-15T14:56:03;9.57;;;5.80;;
32946;SDS011;54465;51.230;22.504;2024-01-15T15:01:04;13.05;;;5.50;;
32946;SDS011;54465;51.230;22.504;2024-01-15T15:06:05;13.45;;;6.20;;
32946;SDS011;54465;51.230;22.504;2024-01-15T15:11:07;10.38;;;5.45;;
32946;SDS011;54465;51.230;22.504;2024-01-15T15:16:08;12.13;;;6.88;;
32946;SDS011;54465;51.230;22.504;2024-01-15T15:21:09;15.07;;;7.03;;
32946;SDS011;54465;51.230;22.504;2024-01-15T15:26:10;21.65;;;9.88;;
32946;SDS011;54465;51.230;22.504;2024-01-15T15:31:10;12.85;;;6.97;;
32946;SDS011;54465;51.230;22.504;2024-01-15T15:36:14;12.23;;;6.53;;
32946;SDS011;54465;51.230;22.504;2024-01-15T15:41:14;13.02;;;6.57;;
32946;SDS011;54465;51.230;22.504;2024-01-15T15:46:15;22.48;;;10.88;;
32946;SDS011;54465;51.230;22.504;2024-01-15T15:51:15;23.08;;;11.40;;
32946;SDS011;54465;51.230;22.504;2024-01-15T15:56:16;16.35;;;9.23;;
32946;SDS011;54465;51.230;22.504;2024-01-15T16:01:17;15.18;;;8.65;;
32946;SDS011;54465;51.230;22.504;2024-01-15T16:06:17;14.43;;;6.32;;
32946;SDS011;54465;51.230;22.504;2024-01-15T16:11:18;9.68;;;5.53;;
32946;SDS011;54465;51.230;22.504;2024-01-15T16:16:18;13.40;;;7.13;;
32946;SDS011;54465;51.230;22.504;2024-01-15T16:21:19;16.67;;;7.45;;
32946;SDS011;54465;51.230;22.504;2024-01-15T16:26:19;14.45;;;7.65;;
32946;SDS011;54465;51.230;22.504;2024-01-15T16:31:20;11.38;;;6.32;;
32946;SDS011;54465;51.230;22.504;2024-01-15T16:36:22;11.57;;;6.93;;
32946;SDS011;54465;51.230;22.504;2024-01-15T16:41:22;14.93;;;6.97;;
32946;SDS011;54465;51.230;22.504;2024-01-15T16:46:23;14.43;;;7.22;;
32946;SDS011;54465;51.230;22.504;2024-01-15T16:51:23;14.38;;;7.35;;
32946;SDS011;54465;51.230;22.504;2024-01-15T16:56:25;14.93;;;7.43;;
32946;SDS011;54465;51.230;22.504;2024-01-15T17:01:25;21.60;;;9.15;;
32946;SDS011;54465;51.230;22.504;2024-01-15T17:06:26;16.23;;;7.82;;
32946;SDS011;54465;51.230;22.504;2024-01-15T17:11:26;19.10;;;9.15;;
32946;SDS011;54465;51.230;22.504;2024-01-15T17:16:28;14.10;;;6.88;;
32946;SDS011;54465;51.230;22.504;2024-01-15T17:21:28;15.98;;;7.63;;
32946;SDS011;54465;51.230;22.504;2024-01-15T17:26:29;11.98;;;6.35;;
32946;SDS011;54465;51.230;22.504;2024-01-15T17:31:30;12.32;;;6.25;;
32946;SDS011;54465;51.230;22.504;2024-01-15T17:36:30;15.45;;;7.68;;
32946;SDS011;54465;51.230;22.504;2024-01-15T17:41:31;12.07;;;7.35;;
32946;SDS011;54465;51.230;22.504;2024-01-15T17:46:33;13.20;;;6.45;;
32946;SDS011;54465;51.230;22.504;2024-01-15T17:51:33;16.30;;;7.60;;
32946;SDS011;54465;51.230;22.504;2024-01-15T17:56:35;13.98;;;6.82;;
32946;SDS011;54465;51.230;22.504;2024-01-15T18:01:35;13.80;;;7.07;;
32946;SDS011;54465;51.230;22.504;2024-01-15T18:06:36;13.63;;;7.00;;
32946;SDS011;54465;51.230;22.504;2024-01-15T18:11:37;15.07;;;6.85;;
32946;SDS011;54465;51.230;22.504;2024-01-15T18:16:37;14.85;;;7.15;;
32946;SDS011;54465;51.230;22.504;2024-01-15T18:21:38;14.70;;;7.15;;
32946;SDS011;54465;51.230;22.504;2024-01-15T18:26:39;12.27;;;6.60;;
32946;SDS011;54465;51.230;22.504;2024-01-15T18:31:40;11.43;;;6.57;;
32946;SDS011;54465;51.230;22.504;2024-01-15T18:36:40;12.95;;;6.47;;
32946;SDS011;54465;51.230;22.504;2024-01-15T18:41:45;11.15;;;6.50;;
32946;SDS011;54465;51.230;22.504;2024-01-15T18:46:46;14.93;;;6.88;;
32946;SDS011;54465;51.230;22.504;2024-01-15T18:51:46;11.93;;;6.47;;
32946;SDS011;54465;51.230;22.504;2024-01-15T18:56:51;11.57;;;6.75;;
32946;SDS011;54465;51.230;22.504;2024-01-15T19:01:52;12.55;;;5.88;;
32946;SDS011;54465;51.230;22.504;2024-01-15T19:06:52;12.77;;;5.97;;
32946;SDS011;54465;51.230;22.504;2024-01-15T19:11:53;14.82;;;7.35;;
32946;SDS011;54465;51.230;22.504;2024-01-15T19:16:53;13.45;;;6.75;;
32946;SDS011;54465;51.230;22.504;2024-01-15T19:21:54;12.32;;;6.32;;
32946;SDS011;54465;51.230;22.504;2024-01-15T19:26:55;14.50;;;7.15;;
32946;SDS011;54465;51.230;22.504;2024-01-15T19:31:55;13.48;;;6.40;;
32946;SDS011;54465;51.230;22.504;2024-01-15T19:36:58;15.50;;;6.90;;
32946;SDS011;54465;51.230;22.504;2024-01-15T19:41:59;11.05;;;6.25;;
32946;SDS011;54465;51.230;22.504;2024-01-15T19:47:01;17.70;;;6.22;;
32946;SDS011;54465;51.230;22.504;2024-01-15T19:52:02;16.15;;;6.40;;
32946;SDS011;54465;51.230;22.504;2024-01-15T19:57:03;15.38;;;6.47;;
32946;SDS011;54465;51.230;22.504;2024-01-15T20:02:04;10.65;;;5.47;;
32946;SDS011;54465;51.230;22.504;2024-01-15T20:07:05;13.43;;;5.97;;
32946;SDS011;54465;51.230;22.504;2024-01-15T20:12:08;11.52;;;6.00;;
32946;SDS011;54465;51.230;22.504;2024-01-15T20:17:08;13.20;;;6.50;;
32946;SDS011;54465;51.230;22.504;2024-01-15T20:22:09;10.65;;;5.47;;
32946;SDS011;54465;51.230;22.504;2024-01-15T20:27:10;13.88;;;6.53;;
32946;SDS011;54465;51.230;22.504;2024-01-15T20:32:10;10.68;;;5.40;;
32946;SDS011;54465;51.230;22.504;2024-01-15T20:37:12;12.63;;;6.50;;
32946;SDS011;54465;51.230;22.504;2024-01-15T20:42:12;9.57;;;5.00;;
32946;SDS011;54465;51.230;22.504;2024-01-15T20:47:13;12.07;;;5.85;;
32946;SDS011;54465;51.230;22.504;2024-01-15T20:52:13;12.45;;;6.22;;
32946;SDS011;54465;51.230;22.504;2024-01-15T20:57:15;15.02;;;5.13;;
32946;SDS011;54465;51.230;22.504;2024-01-15T21:02:15;12.15;;;5.55;;
32946;SDS011;54465;51.230;22.504;2024-01-15T21:07:16;8.35;;;5.10;;
32946;SDS011;54465;51.230;22.504;2024-01-15T21:12:16;10.80;;;5.40;;
32946;SDS011;54465;51.230;22.504;2024-01-15T21:17:17;14.27;;;6.63;;
32946;SDS011;54465;51.230;22.504;2024-01-15T21:22:18;10.07;;;4.95;;
32946;SDS011;54465;51.230;22.504;2024-01-15T21:27:19;16.88;;;7.03;;
32946;SDS011;54465;51.230;22.504;2024-01-15T21:32:19;12.35;;;5.15;;
32946;SDS011;54465;51.230;22.504;2024-01-15T21:37:20;13.82;;;5.63;;
32946;SDS011;54465;51.230;22.504;2024-01-15T21:42:20;8.57;;;4.55;;
32946;SDS011;54465;51.230;22.504;2024-01-15T21:47:21;15.00;;;5.22;;
32946;SDS011;54465;51.230;22.504;2024-01-15T21:52:22;11.32;;;6.05;;
32946;SDS011;54465;51.230;22.504;2024-01-15T21:57:23;13.80;;;5.03;;
32946;SDS011;54465;51.230;22.504;2024-01-15T22:02:23;10.95;;;4.95;;
32946;SDS011;54465;51.230;22.504;2024-01-15T22:07:24;12.15;;;5.40;;
32946;SDS011;54465;51.230;22.504;2024-01-15T22:12:24;11.00;;;5.18;;
32946;SDS011;54465;51.230;22.504;2024-01-15T22:17:25;10.85;;;5.57;;
32946;SDS011;54465;51.230;22.504;2024-01-15T22:22:26;9.27;;;5.32;;
32946;SDS011;54465;51.230;22.504;2024-01-15T22:27:27;9.60;;;5.20;;
32946;SDS011;54465;51.230;22.504;2024-01-15T22:32:27;11.45;;;5.38;;
32946;SDS011;54465;51.230;22.504;2024-01-15T22:37:28;7.43;;;4.80;;
32946;SDS011;54465;51.230;22.504;2024-01-15T22:42:28;7.55;;;3.47;;
32946;SDS011;54465;51.230;22.504;2024-01-15T22:47:29;4.85;;;2.67;;
32946;SDS011;54465;51.230;22.504;2024-01-15T22:52:29;4.03;;;2.33;;
32946;SDS011;54465;51.230;22.504;2024-01-15T22:57:31;4.30;;;2.50;;
32946;SDS011;54465;51.230;22.504;2024-01-15T23:02:31;3.15;;;2.50;;
32946;SDS011;54465;51.230;22.504;2024-01-15T23:07:32;3.65;;;2.20;;
32946;SDS011;54465;51.230;22.504;2024-01-15T23:12:32;4.05;;;2.10;;
32946;SDS011;54465;51.230;22.504;2024-01-15T23:17:33;2.97;;;1.70;;
32946;SDS011;54465;51.230;22.504;2024-01-15T23:22:34;3.33;;;1.05;;
32946;SDS011;54465;51.230;22.504;2024-01-15T23:27:35;2.72;;;1.42;;
32946;SDS011;54465;51.230;22.504;2024-01-15T23:32:36;4.05;;;1.60;;
32946;SDS011;54465;51.230;22.504;2024-01-15T23:37:37;3.92;;;1.08;;
32946;SDS011;54465;51.230;22.504;2024-01-15T23:42:38;2.63;;;1.67;;
32946;SDS011;54465;51.230;22.504;2024-01-15T23:47:39;3.88;;;1.30;;
32946;SDS011;54465;51.230;22.504;2024-01-15T23:52:40;3.65;;;1.10;;
32946;SDS011;54465;51.230;22.504;2024-01-15T23:57:41;2.80;;;1.00;;
